Terminal Aerodrome Forecast
Issued by NWS Sterling, VA

Current Version | Previous Version | Graphics & Text | Print | Product List | Glossary On
Versions: 1 2 3 4 5 6 7 8 9 10 11 12 13 14
388
FTUS41 KLWX 150537
TAFMRB
TAF
KMRB 150537Z 1506/1606 VRB03KT 5SM BR OVC005
     FM150700 33004KT P6SM SCT020 OVC060
     FM150900 33005KT P6SM OVC120=

USA.gov is the U.S. government's official web portal to all federal, state and local government web resources and services.